createdAt,value
2019-03-31T00:00:28.003Z,100810.61
2019-03-31T00:02:59.440Z,100806.27
2019-03-31T00:05:30.758Z,100813.74
2019-03-31T00:08:02.117Z,100816.53
2019-03-31T00:10:34.476Z,100806.58
2019-03-31T00:13:06.125Z,100809.17
2019-03-31T00:15:37.363Z,100807.63
2019-03-31T00:18:08.822Z,100819.09
2019-03-31T00:20:40.129Z,100818.64
2019-03-31T00:23:11.426Z,100823.92
2019-03-31T00:25:44.358Z,100819.84
2019-03-31T00:28:15.696Z,100810.88
2019-03-31T00:30:47.340Z,100814.41
2019-03-31T00:33:18.615Z,100816.27
2019-03-31T00:35:51.151Z,100819.84
2019-03-31T00:38:22.526Z,100818.39
2019-03-31T00:40:53.836Z,100816.86
2019-03-31T00:43:25.222Z,100820.05
2019-03-31T00:45:56.530Z,100832.11
2019-03-31T00:48:27.847Z,100820.69
2019-03-31T00:50:59.141Z,100826.50
2019-03-31T00:53:30.448Z,100825.31
2019-03-31T00:56:01.814Z,100825.59
2019-03-31T00:58:33.081Z,100825.64
2019-03-31T01:01:04.216Z,100829.20
2019-03-31T01:03:37.654Z,100825.64
2019-03-31T01:06:09.198Z,100817.55
2019-03-31T01:08:40.720Z,100827.05
2019-03-31T01:11:16.315Z,100825.84
2019-03-31T01:13:48.277Z,100820.97
2019-03-31T01:16:20.131Z,100816.04
2019-03-31T01:18:51.517Z,100817.78
2019-03-31T01:21:22.884Z,100817.02
2019-03-31T01:23:54.250Z,100810.02
2019-03-31T01:26:25.595Z,100814.34
2019-03-31T01:28:57.137Z,100814.97
2019-03-31T01:31:29.638Z,100818.73
2019-03-31T01:34:00.952Z,100812.48
2019-03-31T01:36:32.331Z,100821.09
2019-03-31T01:39:04.875Z,100818.83
2019-03-31T01:41:38.032Z,100821.46
2019-03-31T01:44:09.337Z,100820.75
2019-03-31T01:46:40.704Z,100821.78
2019-03-31T01:49:11.940Z,100814.52
2019-03-31T01:51:43.252Z,100809.96
2019-03-31T01:54:14.615Z,100815.83
2019-03-31T01:56:45.951Z,100811.17
2019-03-31T01:59:17.323Z,100814.19
2019-03-31T02:01:48.929Z,100812.08
2019-03-31T02:04:20.317Z,100813.16
2019-03-31T02:06:51.628Z,100813.95
2019-03-31T02:09:24.062Z,100806.21
2019-03-31T02:11:55.461Z,100815.08
2019-03-31T02:14:27.889Z,100808.66
2019-03-31T02:16:59.188Z,100812.64
2019-03-31T02:19:30.596Z,100802.64
2019-03-31T02:22:01.838Z,100801.85
2019-03-31T02:24:33.213Z,100801.28
2019-03-31T02:27:04.586Z,100805.75
2019-03-31T02:29:35.905Z,100804.14
2019-03-31T02:32:22.677Z,100806.39
2019-03-31T02:34:40.291Z,100801.94
2019-03-31T02:37:11.534Z,100801.94
2019-03-31T02:39:42.834Z,100805.92
2019-03-31T02:42:14.062Z,100797.67
2019-03-31T02:44:45.428Z,100803.15
2019-03-31T02:47:16.737Z,100801.69
2019-03-31T02:49:48.105Z,100802.03
2019-03-31T02:52:19.418Z,100795.89
2019-03-31T02:54:51.344Z,100796.26
2019-03-31T02:57:23.997Z,100801.41
2019-03-31T02:59:56.551Z,100802.53
2019-03-31T03:02:41.321Z,100798.39
2019-03-31T03:05:18.378Z,100796.14
2019-03-31T03:07:40.157Z,100801.29
2019-03-31T03:10:13.544Z,100801.77
2019-03-31T03:12:48.113Z,100799.51
2019-03-31T03:15:29.423Z,100802.87
2019-03-31T03:18:01.821Z,100803.20
2019-03-31T03:20:33.155Z,100803.97
2019-03-31T03:23:04.456Z,100805.44
2019-03-31T03:25:35.815Z,100799.39
2019-03-31T03:28:07.067Z,100803.80
2019-03-31T03:30:38.552Z,100800.87
2019-03-31T03:33:15.932Z,100806.74
2019-03-31T03:35:42.859Z,100802.75
2019-03-31T03:38:14.103Z,100801.70
2019-03-31T03:40:45.434Z,100805.30
2019-03-31T03:43:16.660Z,100808.91
2019-03-31T03:45:47.975Z,100800.41
2019-03-31T03:48:19.342Z,100803.61
2019-03-31T03:50:50.729Z,100797.86
2019-03-31T03:53:22.016Z,100795.98
2019-03-31T03:55:53.296Z,100795.88
2019-03-31T03:58:24.604Z,100801.66
2019-03-31T04:00:56.044Z,100801.55
2019-03-31T04:03:30.683Z,100796.14
2019-03-31T04:06:00.416Z,100798.23
2019-03-31T04:08:31.659Z,100800.08
2019-03-31T04:11:12.958Z,100795.94
2019-03-31T04:13:44.256Z,100793.26
2019-03-31T04:16:15.686Z,100800.88
2019-03-31T04:18:46.984Z,100799.61
2019-03-31T04:21:18.473Z,100795.98
2019-03-31T04:23:49.783Z,100797.92
2019-03-31T04:26:22.208Z,100799.80
2019-03-31T04:28:53.699Z,100798.80
2019-03-31T04:31:25.106Z,100803.74
2019-03-31T04:33:56.384Z,100799.84
2019-03-31T04:36:27.856Z,100803.19
2019-03-31T04:39:00.425Z,100802.02
2019-03-31T04:41:32.876Z,100799.92
2019-03-31T04:44:04.114Z,100801.84
2019-03-31T04:46:35.485Z,100806.20
2019-03-31T04:49:06.790Z,100803.05
2019-03-31T04:51:38.124Z,100800.70
2019-03-31T04:54:09.424Z,100803.80
2019-03-31T04:56:42.020Z,100807.92
2019-03-31T04:59:13.398Z,100815.20
2019-03-31T05:01:44.827Z,100815.03
2019-03-31T05:04:16.054Z,100821.52
2019-03-31T05:06:47.419Z,100819.27
2019-03-31T05:09:18.654Z,100820.67
2019-03-31T05:11:50.029Z,100821.67
2019-03-31T05:14:22.576Z,100816.44
2019-03-31T05:16:53.872Z,100825.69
2019-03-31T05:19:25.113Z,100827.30
2019-03-31T05:21:56.776Z,100825.25
2019-03-31T05:24:30.626Z,100825.05
2019-03-31T05:27:04.790Z,100824.24
2019-03-31T05:29:36.070Z,100829.48
2019-03-31T05:32:07.369Z,100831.45
2019-03-31T05:34:38.606Z,100835.63
2019-03-31T05:37:10.106Z,100833.48
2019-03-31T05:39:41.414Z,100836.23
2019-03-31T05:42:13.854Z,100834.86
2019-03-31T05:44:45.095Z,100838.31
2019-03-31T05:47:16.456Z,100842.72
2019-03-31T05:49:47.758Z,100843.37
2019-03-31T05:52:19.060Z,100839.86
2019-03-31T05:54:50.303Z,100840.75
2019-03-31T05:57:24.937Z,100836.86
2019-03-31T05:59:56.260Z,100847.30
2019-03-31T06:02:29.614Z,100842.53
2019-03-31T06:05:01.116Z,100841.80
2019-03-31T06:07:33.680Z,100841.22
2019-03-31T06:10:07.450Z,100844.78
2019-03-31T06:12:51.325Z,100849.05
2019-03-31T06:15:22.551Z,100857.95
2019-03-31T06:17:53.945Z,100852.12
2019-03-31T06:20:25.251Z,100856.27
2019-03-31T06:22:56.815Z,100857.60
2019-03-31T06:25:28.210Z,100859.70
2019-03-31T06:27:59.589Z,100860.70
2019-03-31T06:30:30.963Z,100863.43
2019-03-31T06:33:02.249Z,100859.81
2019-03-31T06:35:33.470Z,100857.77
2019-03-31T06:38:13.135Z,100864.00
2019-03-31T06:40:46.069Z,100860.74
2019-03-31T06:43:17.699Z,100857.48
2019-03-31T06:45:49.130Z,100853.74
2019-03-31T06:48:25.189Z,100861.61
2019-03-31T06:50:58.658Z,100861.91
2019-03-31T06:53:29.947Z,100860.27
2019-03-31T06:56:01.655Z,100861.88
2019-03-31T06:58:33.179Z,100861.73
2019-03-31T07:01:04.484Z,100859.16
2019-03-31T07:03:35.791Z,100863.24
2019-03-31T07:06:07.130Z,100866.38
2019-03-31T07:08:38.419Z,100860.13
2019-03-31T07:11:09.663Z,100864.94
2019-03-31T07:13:41.116Z,100865.72
2019-03-31T07:16:12.451Z,100862.12
2019-03-31T07:18:43.901Z,100862.38
2019-03-31T07:21:20.023Z,100866.88
2019-03-31T07:23:51.436Z,100860.55
2019-03-31T07:26:22.683Z,100863.84
2019-03-31T07:28:54.142Z,100855.03
2019-03-31T07:31:37.770Z,100860.97
2019-03-31T07:34:10.124Z,100861.70
2019-03-31T07:36:48.394Z,100859.38
2019-03-31T07:39:21.101Z,100858.01
2019-03-31T07:41:53.459Z,100859.19
2019-03-31T07:44:26.135Z,100858.62
2019-03-31T07:46:58.653Z,100852.71
2019-03-31T07:49:29.996Z,100861.43
2019-03-31T07:52:01.673Z,100857.78
2019-03-31T07:54:50.346Z,100864.27
2019-03-31T07:57:21.636Z,100866.77
2019-03-31T07:59:56.309Z,100865.64
2019-03-31T08:02:26.328Z,100866.38
2019-03-31T08:04:57.709Z,100865.33
2019-03-31T08:07:29.189Z,100862.45
2019-03-31T08:10:00.459Z,100863.59
2019-03-31T08:12:36.145Z,100862.74
2019-03-31T08:15:13.317Z,100867.17
2019-03-31T08:17:44.646Z,100871.41
2019-03-31T08:20:18.926Z,100876.92
2019-03-31T08:22:50.187Z,100875.28
2019-03-31T08:25:26.676Z,100877.63
2019-03-31T08:27:57.908Z,100881.77
2019-03-31T08:30:29.231Z,100880.62
2019-03-31T08:33:00.683Z,100879.55
2019-03-31T08:35:46.263Z,100878.39
2019-03-31T08:38:05.087Z,100869.77
2019-03-31T08:40:37.586Z,100870.00
2019-03-31T08:43:19.203Z,100870.17
2019-03-31T08:45:52.220Z,100869.02
2019-03-31T08:48:23.552Z,100867.41
2019-03-31T08:50:55.093Z,100870.63
2019-03-31T08:53:26.592Z,100871.66
2019-03-31T08:55:57.900Z,100872.27
2019-03-31T08:58:29.337Z,100867.09
2019-03-31T09:01:02.495Z,100868.52
2019-03-31T09:03:33.995Z,100868.56
2019-03-31T09:06:10.002Z,100870.38
2019-03-31T09:08:43.987Z,100870.86
2019-03-31T09:11:15.539Z,100870.91
2019-03-31T09:13:47.099Z,100864.72
2019-03-31T09:16:18.639Z,100858.98
2019-03-31T09:21:52.658Z,100862.17
2019-03-31T09:24:24.102Z,100869.70
2019-03-31T09:27:05.120Z,100863.91
2019-03-31T09:29:36.827Z,100864.75
2019-03-31T09:32:17.172Z,100867.36
2019-03-31T09:34:48.641Z,100871.33
2019-03-31T09:37:22.896Z,100865.06
2019-03-31T09:39:55.782Z,100857.06
2019-03-31T09:42:29.275Z,100855.64
2019-03-31T09:45:02.666Z,100847.98
2019-03-31T09:47:36.227Z,100855.03
2019-03-31T09:50:17.195Z,100855.79
2019-03-31T09:52:50.846Z,100852.55
2019-03-31T09:55:23.232Z,100850.68
2019-03-31T09:57:59.232Z,100850.13
2019-03-31T10:00:48.984Z,100848.77
2019-03-31T10:03:21.309Z,100841.44
2019-03-31T10:05:52.795Z,100845.28
2019-03-31T10:08:24.418Z,100841.27
2019-03-31T10:10:58.634Z,100847.27
2019-03-31T10:13:29.990Z,100838.13
2019-03-31T10:16:05.586Z,100831.46
2019-03-31T10:18:38.061Z,100828.67
2019-03-31T10:21:12.127Z,100822.66
2019-03-31T10:23:48.482Z,100826.41
2019-03-31T10:26:32.248Z,100824.75
2019-03-31T10:29:03.121Z,100820.13
2019-03-31T10:31:34.510Z,100820.86
2019-03-31T10:34:06.342Z,100816.22
2019-03-31T10:36:44.623Z,100820.74
2019-03-31T10:39:13.500Z,100818.28
2019-03-31T10:41:45.249Z,100815.39
2019-03-31T10:44:16.626Z,100809.81
2019-03-31T10:46:47.953Z,100803.20
2019-03-31T10:49:19.562Z,100808.34
2019-03-31T10:51:51.173Z,100812.36
2019-03-31T10:54:22.521Z,100808.18
2019-03-31T10:56:54.000Z,100805.06
2019-03-31T10:59:27.033Z,100798.92
2019-03-31T11:01:58.541Z,100796.02
2019-03-31T11:04:32.288Z,100799.78
2019-03-31T11:07:07.450Z,100791.84
2019-03-31T11:09:38.977Z,100795.22
2019-03-31T11:12:11.803Z,100791.57
2019-03-31T11:14:43.123Z,100793.31
2019-03-31T11:17:14.594Z,100794.55
2019-03-31T11:19:46.041Z,100795.59
2019-03-31T11:22:30.901Z,100797.25
2019-03-31T11:25:19.945Z,100791.66
2019-03-31T11:27:39.615Z,100790.45
2019-03-31T11:30:11.840Z,100791.55
2019-03-31T11:32:43.249Z,100790.03
2019-03-31T11:35:14.981Z,100788.59
2019-03-31T11:37:47.531Z,100790.95
2019-03-31T11:40:21.839Z,100780.27
2019-03-31T11:42:53.166Z,100785.38
2019-03-31T11:45:24.631Z,100777.94
2019-03-31T11:47:56.507Z,100777.68
2019-03-31T11:50:27.903Z,100773.08
2019-03-31T11:52:59.345Z,100773.42
2019-03-31T11:55:30.969Z,100775.48
2019-03-31T11:58:02.506Z,100771.56
2019-03-31T12:00:35.552Z,100763.89
2019-03-31T12:03:06.998Z,100769.59
2019-03-31T12:05:38.445Z,100767.99
2019-03-31T12:08:10.953Z,100762.63
2019-03-31T12:10:42.337Z,100757.67
2019-03-31T12:13:13.796Z,100753.41
2019-03-31T12:15:45.285Z,100748.72
2019-03-31T12:18:16.748Z,100747.19
2019-03-31T12:20:48.126Z,100740.03
2019-03-31T12:23:24.677Z,100740.46
2019-03-31T12:25:58.371Z,100737.89
2019-03-31T12:28:32.898Z,100733.91
2019-03-31T12:31:14.533Z,100738.28
2019-03-31T12:33:46.101Z,100732.90
2019-03-31T12:36:17.557Z,100733.94
2019-03-31T12:38:49.480Z,100727.48
2019-03-31T12:41:22.808Z,100722.34
2019-03-31T12:43:54.306Z,100720.34
2019-03-31T12:46:29.038Z,100721.42
2019-03-31T12:48:59.258Z,100713.93
2019-03-31T12:51:32.277Z,100708.37
2019-03-31T12:54:07.290Z,100713.45
2019-03-31T12:56:38.821Z,100706.30
2019-03-31T12:59:10.488Z,100707.91
2019-03-31T13:01:44.446Z,100697.91
2019-03-31T13:04:15.582Z,100701.77
2019-03-31T13:06:47.956Z,100704.60
2019-03-31T13:09:19.676Z,100700.07
2019-03-31T13:11:51.398Z,100694.59
2019-03-31T13:14:23.190Z,100686.95
2019-03-31T13:16:57.319Z,100691.82
2019-03-31T13:19:41.599Z,100683.11
2019-03-31T13:22:27.816Z,100684.06
2019-03-31T13:25:13.605Z,100672.45
2019-03-31T13:27:48.039Z,100674.41
2019-03-31T13:30:31.111Z,100678.71
2019-03-31T13:33:06.006Z,100677.50
2019-03-31T13:35:45.506Z,100672.22
2019-03-31T13:38:35.071Z,100678.34
2019-03-31T13:41:52.665Z,100670.55
2019-03-31T13:47:58.780Z,100664.44
2019-03-31T13:50:33.513Z,100661.16
2019-03-31T13:53:32.040Z,100657.30
2019-03-31T13:58:59.080Z,100645.20
2019-03-31T14:01:31.100Z,100651.55
2019-03-31T14:04:07.979Z,100645.03
2019-03-31T14:09:44.610Z,100636.84
2019-03-31T14:12:19.326Z,100637.64
2019-03-31T14:14:50.791Z,100636.85
2019-03-31T14:17:24.540Z,100638.09
2019-03-31T14:20:05.612Z,100625.38
2019-03-31T14:22:41.708Z,100628.20
2019-03-31T14:25:13.189Z,100623.21
2019-03-31T14:28:05.230Z,100629.08
2019-03-31T14:30:40.499Z,100623.53
2019-03-31T14:33:11.952Z,100624.56
2019-03-31T14:35:43.453Z,100622.11
2019-03-31T14:38:14.924Z,100617.95
2019-03-31T14:40:46.335Z,100611.23
2019-03-31T14:43:17.875Z,100606.41
2019-03-31T14:45:49.307Z,100607.27
2019-03-31T14:48:20.679Z,100605.72
2019-03-31T14:50:52.039Z,100602.47
2019-03-31T14:53:23.778Z,100598.40
2019-03-31T14:55:55.041Z,100594.89
2019-03-31T14:58:27.556Z,100593.30
2019-03-31T15:01:08.769Z,100600.38
2019-03-31T15:03:40.361Z,100599.44
2019-03-31T15:06:11.660Z,100602.16
2019-03-31T15:08:54.194Z,100597.36
2019-03-31T15:11:22.112Z,100592.97
2019-03-31T15:13:53.863Z,100597.02
2019-03-31T15:16:25.626Z,100598.62
2019-03-31T15:18:57.025Z,100596.06
2019-03-31T15:21:28.315Z,100594.52
2019-03-31T15:24:00.280Z,100599.58
2019-03-31T15:26:31.758Z,100593.72
2019-03-31T15:29:03.278Z,100593.10
2019-03-31T15:31:34.525Z,100590.56
2019-03-31T15:34:06.172Z,100592.94
2019-03-31T15:36:37.645Z,100587.14
2019-03-31T15:39:10.383Z,100585.03
2019-03-31T15:41:43.518Z,100585.16
2019-03-31T15:44:15.317Z,100586.68
2019-03-31T15:46:46.743Z,100588.11
2019-03-31T15:49:18.337Z,100582.79
2019-03-31T15:51:54.869Z,100590.33
2019-03-31T15:54:28.016Z,100588.44
2019-03-31T15:57:02.669Z,100591.61
2019-03-31T15:59:38.631Z,100582.27
2019-03-31T16:02:39.176Z,100589.16
2019-03-31T16:08:31.783Z,100589.91
2019-03-31T16:11:54.311Z,100590.72
2019-03-31T16:14:06.092Z,100593.02
2019-03-31T16:14:27.891Z,100592.07
2019-03-31T16:17:00.054Z,100585.42
2019-03-31T16:19:40.164Z,100589.02
2019-03-31T16:22:17.158Z,100587.11
2019-03-31T16:25:24.270Z,100583.19
2019-03-31T16:28:00.089Z,100578.81
2019-03-31T16:30:35.812Z,100580.23
2019-03-31T16:33:07.543Z,100581.37
2019-03-31T16:35:38.948Z,100581.77
2019-03-31T16:38:11.443Z,100579.14
2019-03-31T16:40:42.690Z,100582.02
2019-03-31T16:43:14.110Z,100579.03
2019-03-31T16:45:45.617Z,100583.75
2019-03-31T16:48:18.439Z,100581.02
2019-03-31T16:50:55.894Z,100580.97
2019-03-31T16:59:53.843Z,100589.11
2019-03-31T17:02:25.677Z,100595.37
2019-03-31T17:04:57.292Z,100602.34
2019-03-31T17:07:33.939Z,100603.77
2019-03-31T17:10:48.743Z,100607.70
2019-03-31T17:13:07.126Z,100619.05
2019-03-31T17:15:43.153Z,100632.59
2019-03-31T17:18:22.443Z,100630.93
2019-03-31T17:20:55.694Z,100635.12
2019-03-31T17:23:32.776Z,100633.96
2019-03-31T17:26:13.308Z,100629.72
2019-03-31T17:28:50.022Z,100635.72
2019-03-31T17:31:23.409Z,100648.77
2019-03-31T17:33:55.524Z,100645.72
2019-03-31T17:36:28.854Z,100646.63
2019-03-31T17:39:11.242Z,100653.87
2019-03-31T17:41:44.609Z,100652.43
2019-03-31T17:44:19.818Z,100654.00
2019-03-31T17:46:51.818Z,100659.08
2019-03-31T17:49:26.068Z,100666.32
2019-03-31T17:52:04.183Z,100668.27
2019-03-31T17:54:37.463Z,100665.20
2019-03-31T17:57:10.655Z,100674.71
2019-03-31T17:59:51.791Z,100675.72
2019-03-31T18:02:25.055Z,100678.05
2019-03-31T18:05:02.288Z,100683.11
2019-03-31T18:07:50.629Z,100688.02
2019-03-31T18:10:25.706Z,100689.47
2019-03-31T18:13:07.591Z,100689.55
2019-03-31T18:15:52.117Z,100698.44
2019-03-31T18:18:34.802Z,100705.13
2019-03-31T18:21:10.086Z,100699.91
2019-03-31T18:23:57.376Z,100702.63
2019-03-31T18:26:35.673Z,100706.24
2019-03-31T18:29:09.276Z,100707.17
2019-03-31T18:31:41.088Z,100709.83
2019-03-31T18:34:17.169Z,100712.99
2019-03-31T18:36:53.948Z,100720.57
2019-03-31T18:39:26.602Z,100728.14
2019-03-31T18:42:01.526Z,100737.48
2019-03-31T18:44:34.822Z,100737.50
2019-03-31T18:47:06.261Z,100737.51
2019-03-31T18:49:37.676Z,100745.97
2019-03-31T18:52:10.535Z,100749.52
2019-03-31T18:54:56.701Z,100755.69
2019-03-31T18:57:46.088Z,100756.58
2019-03-31T19:00:27.651Z,100759.24
2019-03-31T19:03:12.630Z,100762.78
2019-03-31T19:05:44.921Z,100764.09
2019-03-31T19:08:26.946Z,100762.75
2019-03-31T19:11:16.055Z,100763.61
2019-03-31T19:13:55.502Z,100768.02
2019-03-31T19:16:34.181Z,100774.21
2019-03-31T19:19:13.205Z,100780.81
2019-03-31T19:22:03.199Z,100786.09
2019-03-31T19:24:36.028Z,100786.03
2019-03-31T19:27:24.841Z,100796.19
2019-03-31T19:29:57.881Z,100789.05
2019-03-31T19:32:46.770Z,100801.88
2019-03-31T19:35:26.038Z,100801.83
2019-03-31T19:38:02.285Z,100800.92
2019-03-31T19:40:35.722Z,100808.84
2019-03-31T19:43:25.481Z,100815.88
2019-03-31T19:46:05.051Z,100821.60
2019-03-31T19:48:41.939Z,100821.13
2019-03-31T19:51:23.676Z,100826.86
2019-03-31T19:54:13.650Z,100823.28
2019-03-31T19:56:55.479Z,100831.67
2019-03-31T19:59:38.610Z,100829.44
2019-03-31T20:02:10.831Z,100835.59
2019-03-31T20:04:56.079Z,100834.62
2019-03-31T20:07:45.159Z,100838.56
2019-03-31T20:10:27.226Z,100843.36
2019-03-31T20:13:13.366Z,100845.48
2019-03-31T20:16:04.380Z,100850.25
2019-03-31T20:18:55.483Z,100858.13
2019-03-31T20:21:37.353Z,100858.13
2019-03-31T20:24:25.256Z,100858.08
2019-03-31T20:27:16.127Z,100862.00
2019-03-31T20:29:51.914Z,100860.17
2019-03-31T20:32:27.871Z,100867.53
2019-03-31T20:35:17.011Z,100876.72
2019-03-31T20:38:04.585Z,100881.53
2019-03-31T20:40:43.544Z,100883.18
2019-03-31T20:43:16.550Z,100883.05
2019-03-31T20:45:48.073Z,100883.01
2019-03-31T20:48:19.334Z,100880.70
2019-03-31T20:50:51.032Z,100886.39
2019-03-31T20:53:22.459Z,100877.49
2019-03-31T20:55:53.837Z,100884.94
2019-03-31T20:58:25.442Z,100881.69
2019-03-31T21:00:56.692Z,100889.06
2019-03-31T21:03:28.068Z,100888.13
2019-03-31T21:05:59.547Z,100888.49
2019-03-31T21:08:31.059Z,100887.53
2019-03-31T21:11:02.380Z,100893.23
2019-03-31T21:13:33.802Z,100884.70
2019-03-31T21:16:05.294Z,100892.92
2019-03-31T21:18:36.667Z,100897.30
2019-03-31T21:21:08.029Z,100898.63
2019-03-31T21:23:39.457Z,100898.95
2019-03-31T21:26:10.953Z,100902.84
2019-03-31T21:28:42.383Z,100908.03
2019-03-31T21:31:13.648Z,100897.29
2019-03-31T21:33:45.168Z,100910.86
2019-03-31T21:36:16.630Z,100904.22
2019-03-31T21:38:48.078Z,100901.98
2019-03-31T21:41:19.401Z,100899.58
2019-03-31T21:43:50.776Z,100906.61
2019-03-31T21:46:22.168Z,100895.55
2019-03-31T21:48:53.558Z,100904.23
2019-03-31T21:51:24.874Z,100901.11
2019-03-31T21:53:57.194Z,100907.63
2019-03-31T21:56:28.666Z,100905.33
2019-03-31T21:59:00.010Z,100907.48
2019-03-31T22:01:32.415Z,100910.03
2019-03-31T22:04:04.129Z,100906.91
2019-03-31T22:06:35.671Z,100909.05
2019-03-31T22:09:09.864Z,100910.25
2019-03-31T22:11:44.692Z,100906.23
2019-03-31T22:14:17.680Z,100907.89
2019-03-31T22:16:49.088Z,100907.37
2019-03-31T22:19:20.504Z,100907.30
2019-03-31T22:21:51.920Z,100905.40
2019-03-31T22:24:23.234Z,100899.53
2019-03-31T22:26:54.838Z,100903.03
2019-03-31T22:29:26.141Z,100906.00
2019-03-31T22:31:57.555Z,100905.05
2019-03-31T22:34:28.873Z,100910.26
2019-03-31T22:37:02.756Z,100901.42
2019-03-31T22:39:34.076Z,100895.64
2019-03-31T22:42:05.820Z,100907.48
2019-03-31T22:44:37.205Z,100899.47
2019-03-31T22:47:08.603Z,100905.64
2019-03-31T22:49:40.045Z,100903.36
2019-03-31T22:52:11.485Z,100899.30
2019-03-31T22:54:42.797Z,100904.52
2019-03-31T22:57:14.163Z,100898.31
2019-03-31T22:59:45.634Z,100902.16
2019-03-31T23:02:17.072Z,100903.48
2019-03-31T23:04:48.308Z,100903.38
2019-03-31T23:07:19.789Z,100902.42
2019-03-31T23:09:51.049Z,100904.98
2019-03-31T23:12:22.338Z,100907.95
2019-03-31T23:14:53.597Z,100904.78
2019-03-31T23:17:25.944Z,100899.89
2019-03-31T23:19:57.188Z,100902.95
2019-03-31T23:22:28.489Z,100894.94
2019-03-31T23:24:59.732Z,100894.44
2019-03-31T23:27:31.034Z,100900.92
2019-03-31T23:30:02.442Z,100898.68
2019-03-31T23:32:34.981Z,100897.72
2019-03-31T23:35:08.039Z,100893.33
2019-03-31T23:37:39.403Z,100899.81
2019-03-31T23:40:10.717Z,100894.04
2019-03-31T23:42:42.030Z,100890.02
2019-03-31T23:45:13.425Z,100891.69
2019-03-31T23:47:44.813Z,100891.57
2019-03-31T23:50:17.701Z,100902.04
2019-03-31T23:52:49.001Z,100890.48
2019-03-31T23:55:20.505Z,100890.45
2019-03-31T23:57:51.746Z,100885.61
